Time;durP1;ratioP1;P1;durP2;ratioP2;P2;SDS_P1;SDS_P2;PMS_P1;PMS_P2;Temp;Humidity;BMP_temperature;BMP_pressure;BME280_temperature;BME280_humidity;BME280_pressure;Samples;Min_cycle;Max_cycle;Signal;HPM_P1;HPM_P2
2023/07/31 00:01:00;;;;;;;9.07;3.70;;;17.30;99.90;;;;;;5037059;28;20044;-62
2023/07/31 00:03:26;;;;;;;10.27;3.70;;;17.30;99.90;;;;;;5038349;28;20139;-60
2023/07/31 00:05:51;;;;;;;8.43;4.07;;;17.30;99.90;;;;;;5043191;28;20033;-60
2023/07/31 00:08:17;;;;;;;11.50;4.03;;;17.30;99.90;;;;;;5040210;28;20033;-60
2023/07/31 00:10:42;;;;;;;12.00;3.80;;;17.30;99.90;;;;;;5038761;28;20021;-62
2023/07/31 00:13:08;;;;;;;13.55;4.15;;;17.30;99.90;;;;;;5043691;28;20037;-62
2023/07/31 00:15:33;;;;;;;17.05;4.70;;;17.30;99.90;;;;;;5042253;28;20026;-61
2023/07/31 00:18:00;;;;;;;7.68;3.40;;;17.30;99.90;;;;;;5034589;28;20021;-61
2023/07/31 00:20:26;;;;;;;12.43;4.30;;;17.30;99.90;;;;;;5044253;28;20025;-61
2023/07/31 00:22:51;;;;;;;12.55;4.45;;;17.40;99.90;;;;;;5047306;28;20090;-61
2023/07/31 00:25:17;;;;;;;13.35;4.78;;;17.40;99.90;;;;;;5038965;28;20152;-62
2023/07/31 00:27:44;;;;;;;11.75;4.40;;;17.30;99.90;;;;;;5042607;28;20029;-62
2023/07/31 00:30:10;;;;;;;12.95;3.78;;;17.30;99.90;;;;;;5039105;28;20029;-61
2023/07/31 00:32:36;;;;;;;14.50;4.63;;;17.30;99.90;;;;;;5043243;28;20036;-62
2023/07/31 00:35:01;;;;;;;12.32;3.33;;;17.40;99.90;;;;;;5041255;28;20025;-63
2023/07/31 00:37:27;;;;;;;7.93;3.20;;;17.40;99.90;;;;;;5034628;28;20552;-62
2023/07/31 00:39:53;;;;;;;6.03;3.22;;;17.50;99.90;;;;;;5039721;28;20033;-62
2023/07/31 00:42:18;;;;;;;10.02;3.80;;;17.50;99.90;;;;;;5038701;28;20071;-61
2023/07/31 00:44:44;;;;;;;9.68;3.08;;;17.40;99.90;;;;;;5041837;28;20082;-63
2023/07/31 00:47:09;;;;;;;9.77;3.00;;;17.50;99.90;;;;;;5035960;28;20055;-61
2023/07/31 00:49:35;;;;;;;6.63;3.00;;;17.50;99.90;;;;;;5042423;28;20028;-61
2023/07/31 00:52:02;;;;;;;13.27;3.00;;;17.50;99.90;;;;;;5041207;28;20034;-62
2023/07/31 00:54:28;;;;;;;6.75;3.08;;;17.50;99.90;;;;;;5042407;28;20024;-62
2023/07/31 00:56:54;;;;;;;10.23;3.90;;;17.50;99.90;;;;;;5041515;28;20013;-62
2023/07/31 00:59:20;;;;;;;13.38;3.30;;;17.50;99.90;;;;;;5039253;28;20099;-62
2023/07/31 01:01:46;;;;;;;8.55;3.35;;;17.50;99.90;;;;;;5038810;28;20489;-62
2023/07/31 01:04:13;;;;;;;7.25;3.08;;;17.50;99.90;;;;;;5042085;28;20032;-61
2023/07/31 01:07:01;;;;;;;6.85;2.78;;;17.50;99.90;;;;;;5037370;28;20021;-61
2023/07/31 01:10:02;;;;;;;8.60;2.85;;;17.50;99.90;;;;;;5034000;28;20029;-62
2023/07/31 01:12:30;;;;;;;5.88;2.97;;;17.60;99.90;;;;;;5033089;28;20083;-62
2023/07/31 01:15:06;;;;;;;11.25;3.20;;;17.50;99.90;;;;;;5037443;28;20566;-62
2023/07/31 01:17:31;;;;;;;10.15;3.22;;;17.60;99.90;;;;;;5036315;28;20112;-62
2023/07/31 01:20:01;;;;;;;10.55;3.58;;;17.50;99.90;;;;;;5038635;28;20107;-62
2023/07/31 01:22:38;;;;;;;8.27;3.40;;;17.60;99.90;;;;;;5037743;28;20067;-62
2023/07/31 01:25:12;;;;;;;7.40;3.60;;;17.60;99.90;;;;;;5033848;28;20071;-61
2023/07/31 01:27:53;;;;;;;12.43;3.28;;;17.60;99.90;;;;;;5035706;28;20025;-62
2023/07/31 01:30:24;;;;;;;10.50;3.13;;;17.60;99.90;;;;;;5040348;28;20028;-62
2023/07/31 01:32:52;;;;;;;9.70;2.88;;;17.60;99.90;;;;;;5033486;28;20489;-60
2023/07/31 01:35:18;;;;;;;8.45;2.95;;;17.60;99.90;;;;;;5042035;28;20064;-62
2023/07/31 01:37:45;;;;;;;9.68;3.40;;;17.60;99.90;;;;;;5030247;28;20045;-62
2023/07/31 01:40:10;;;;;;;9.05;2.75;;;17.60;99.90;;;;;;5041684;28;20060;-61
2023/07/31 01:42:36;;;;;;;7.18;3.95;;;17.60;99.90;;;;;;5036741;28;20691;-62
2023/07/31 01:45:01;;;;;;;13.27;3.28;;;17.60;99.90;;;;;;5036870;28;20029;-60
2023/07/31 01:47:27;;;;;;;7.80;3.10;;;17.60;99.90;;;;;;5038444;28;20025;-62
2023/07/31 01:49:52;;;;;;;6.80;2.95;;;17.60;99.90;;;;;;5041873;28;20029;-61
2023/07/31 01:52:18;;;;;;;8.88;2.92;;;17.60;99.90;;;;;;5041665;28;20439;-63
2023/07/31 01:54:44;;;;;;;8.90;3.15;;;17.60;99.90;;;;;;5035512;28;20025;-60
2023/07/31 01:57:09;;;;;;;7.25;3.25;;;17.60;99.90;;;;;;5037800;28;20539;-61
2023/07/31 01:59:35;;;;;;;6.15;2.78;;;17.70;99.90;;;;;;5034473;28;20028;-61
2023/07/31 02:02:00;;;;;;;9.10;3.58;;;17.70;99.90;;;;;;5037445;28;20052;-61
2023/07/31 02:04:26;;;;;;;10.43;3.03;;;17.70;99.90;;;;;;5041496;28;20504;-61
2023/07/31 02:06:52;;;;;;;6.18;2.88;;;17.70;99.90;;;;;;5038723;28;20021;-61
2023/07/31 02:09:18;;;;;;;10.55;3.47;;;17.80;99.90;;;;;;5034509;28;20034;-62
2023/07/31 02:11:44;;;;;;;15.90;3.97;;;17.80;99.90;;;;;;5040771;28;20030;-62
2023/07/31 02:14:09;;;;;;;8.45;2.90;;;17.80;99.90;;;;;;5034228;28;20025;-62
2023/07/31 02:16:35;;;;;;;9.90;2.83;;;17.80;99.90;;;;;;5036205;28;20021;-62
2023/07/31 02:19:00;;;;;;;11.85;3.25;;;17.80;99.90;;;;;;5037617;28;20091;-63
2023/07/31 02:21:26;;;;;;;12.75;3.75;;;17.80;99.90;;;;;;5036877;28;20079;-62
2023/07/31 02:23:51;;;;;;;10.52;3.50;;;17.80;99.90;;;;;;5038513;28;20025;-62
2023/07/31 02:26:17;;;;;;;13.63;4.10;;;17.80;99.90;;;;;;5036710;28;20029;-63
2023/07/31 02:28:43;;;;;;;13.32;4.47;;;17.90;99.90;;;;;;5035990;28;20029;-63
2023/07/31 02:31:08;;;;;;;13.60;3.90;;;17.80;99.90;;;;;;5035102;28;20030;-63
2023/07/31 02:33:34;;;;;;;15.57;3.72;;;17.80;99.90;;;;;;5035909;28;20057;-62
2023/07/31 02:35:59;;;;;;;11.40;4.05;;;17.80;99.90;;;;;;5041558;28;20034;-63
2023/07/31 02:38:25;;;;;;;12.30;3.72;;;17.80;99.90;;;;;;5036995;28;20100;-62
2023/07/31 02:40:50;;;;;;;9.98;5.07;;;17.80;99.90;;;;;;5034587;28;20030;-62
2023/07/31 02:43:16;;;;;;;13.43;3.58;;;17.90;99.90;;;;;;5038882;28;20044;-61
2023/07/31 02:45:42;;;;;;;12.70;3.97;;;17.90;99.90;;;;;;5035349;28;20487;-63
2023/07/31 02:48:07;;;;;;;14.65;4.28;;;17.90;99.90;;;;;;5034851;28;20029;-62
2023/07/31 02:50:33;;;;;;;11.38;3.45;;;17.90;99.90;;;;;;5032203;28;20033;-62
2023/07/31 02:52:58;;;;;;;16.42;4.07;;;17.90;99.90;;;;;;5039973;28;20029;-63
2023/07/31 02:55:24;;;;;;;9.48;4.20;;;18.00;99.90;;;;;;5027634;28;20505;-62
2023/07/31 02:57:50;;;;;;;7.18;3.17;;;17.90;99.90;;;;;;5037731;28;20512;-64
2023/07/31 03:00:15;;;;;;;8.35;3.58;;;17.90;99.90;;;;;;5049801;28;20057;-62
2023/07/31 03:02:41;;;;;;;13.63;3.88;;;18.00;99.90;;;;;;5034361;28;20123;-63
2023/07/31 03:05:07;;;;;;;10.98;3.55;;;18.00;99.90;;;;;;5033622;28;20501;-62
2023/07/31 03:07:33;;;;;;;13.35;3.70;;;17.90;99.90;;;;;;5038041;28;20033;-60
2023/07/31 03:09:58;;;;;;;14.38;3.95;;;18.00;99.90;;;;;;5033067;28;20537;-63
2023/07/31 03:12:24;;;;;;;12.50;3.53;;;18.00;99.90;;;;;;5038048;28;20044;-61
2023/07/31 03:14:49;;;;;;;13.88;4.38;;;18.00;99.90;;;;;;5032382;28;20043;-61
2023/07/31 03:17:15;;;;;;;10.18;4.60;;;18.00;99.90;;;;;;5032292;28;20174;-63
2023/07/31 03:19:41;;;;;;;12.77;4.20;;;18.10;99.90;;;;;;5033861;28;20404;-63
2023/07/31 03:22:06;;;;;;;14.07;4.43;;;18.10;99.90;;;;;;5034791;28;20551;-61
2023/07/31 03:24:32;;;;;;;10.48;3.67;;;18.10;99.90;;;;;;5034070;28;20048;-62
2023/07/31 03:26:57;;;;;;;9.82;4.13;;;18.10;99.90;;;;;;5036006;28;20033;-63
2023/07/31 03:29:23;;;;;;;12.20;3.92;;;18.10;99.90;;;;;;5038765;28;20025;-62
2023/07/31 03:31:49;;;;;;;13.55;4.88;;;18.10;99.90;;;;;;5034758;28;20453;-62
2023/07/31 03:34:14;;;;;;;19.77;4.72;;;18.10;99.90;;;;;;5037520;28;20068;-62
2023/07/31 03:36:40;;;;;;;16.17;5.05;;;18.10;99.90;;;;;;5038859;28;20397;-62
2023/07/31 03:39:05;;;;;;;10.02;3.83;;;18.20;99.90;;;;;;5040091;28;20041;-62
2023/07/31 03:41:31;;;;;;;15.30;4.35;;;18.10;99.90;;;;;;5042240;28;20036;-61
2023/07/31 03:43:56;;;;;;;9.07;4.15;;;18.10;99.90;;;;;;5038263;28;20029;-62
2023/07/31 03:46:23;;;;;;;10.70;3.85;;;18.20;99.90;;;;;;5042487;28;20021;-62
2023/07/31 03:48:49;;;;;;;10.80;4.10;;;18.20;99.90;;;;;;5038150;28;20401;-62
2023/07/31 03:51:14;;;;;;;9.73;3.80;;;18.10;99.90;;;;;;5039055;28;20026;-59
2023/07/31 03:53:40;;;;;;;8.25;3.60;;;18.10;99.90;;;;;;5038963;28;20021;-62
2023/07/31 03:56:05;;;;;;;10.23;3.70;;;18.00;99.90;;;;;;5042047;28;20079;-61
2023/07/31 03:58:31;;;;;;;14.27;4.95;;;18.00;99.90;;;;;;5038769;28;20079;-62
2023/07/31 04:00:57;;;;;;;13.13;4.07;;;17.90;99.90;;;;;;5038894;28;20025;-63
2023/07/31 04:03:22;;;;;;;13.07;4.35;;;17.90;99.90;;;;;;5038005;28;20385;-62
2023/07/31 04:05:48;;;;;;;14.52;3.78;;;17.90;99.90;;;;;;5042583;28;20488;-63
2023/07/31 04:08:13;;;;;;;6.75;3.85;;;17.90;99.90;;;;;;5037700;28;20392;-63
2023/07/31 04:10:39;;;;;;;8.98;3.88;;;17.80;99.90;;;;;;5045991;28;20017;-62
2023/07/31 04:13:04;;;;;;;10.20;4.18;;;17.80;99.90;;;;;;5035422;28;20033;-63
2023/07/31 04:15:30;;;;;;;11.30;3.78;;;17.80;99.90;;;;;;5040441;28;20025;-62
2023/07/31 04:17:55;;;;;;;8.10;3.90;;;17.70;99.90;;;;;;5034759;28;20049;-62
2023/07/31 04:20:21;;;;;;;9.93;4.57;;;17.70;99.90;;;;;;5044588;28;20065;-63
2023/07/31 04:22:46;;;;;;;8.30;3.90;;;17.50;99.90;;;;;;5040139;28;20021;-62
2023/07/31 04:25:12;;;;;;;13.70;4.25;;;17.70;99.90;;;;;;5033946;28;20401;-60
2023/07/31 04:27:37;;;;;;;8.88;4.53;;;17.60;99.90;;;;;;5036971;28;20446;-59
2023/07/31 04:30:03;;;;;;;13.02;4.18;;;17.70;99.90;;;;;;5038944;28;20517;-61
2023/07/31 04:32:29;;;;;;;14.38;4.20;;;17.80;99.90;;;;;;5036069;28;20511;-62
2023/07/31 04:34:55;;;;;;;9.27;4.32;;;18.00;99.90;;;;;;5040396;28;20025;-63
2023/07/31 04:37:20;;;;;;;9.25;4.75;;;18.00;99.90;;;;;;5041197;28;20025;-62
2023/07/31 04:39:46;;;;;;;12.02;4.38;;;18.00;99.90;;;;;;5034494;28;20651;-63
2023/07/31 04:42:12;;;;;;;8.95;3.95;;;18.10;99.90;;;;;;5035997;28;20518;-62
2023/07/31 04:44:37;;;;;;;10.82;4.43;;;18.10;99.90;;;;;;5037076;28;20033;-62
2023/07/31 04:47:03;;;;;;;11.65;4.32;;;18.10;99.90;;;;;;5032864;28;20029;-62
2023/07/31 04:49:28;;;;;;;12.13;4.97;;;18.20;99.90;;;;;;5034999;28;20017;-62
2023/07/31 04:51:54;;;;;;;8.57;4.53;;;18.20;99.90;;;;;;5039026;28;20032;-61
2023/07/31 04:54:19;;;;;;;10.70;3.88;;;18.30;99.90;;;;;;5033391;28;20021;-63
2023/07/31 04:56:45;;;;;;;11.95;4.28;;;18.30;99.90;;;;;;5055994;28;20024;-62
2023/07/31 04:59:11;;;;;;;8.75;3.92;;;18.40;99.90;;;;;;5038696;28;20017;-62
2023/07/31 05:01:36;;;;;;;12.50;4.53;;;18.40;99.90;;;;;;5041036;28;20108;-62
2023/07/31 05:04:02;;;;;;;11.77;3.97;;;18.40;99.90;;;;;;5036689;28;20113;-63
2023/07/31 05:06:27;;;;;;;11.30;4.78;;;18.50;99.90;;;;;;5039197;28;20025;-61
2023/07/31 05:08:53;;;;;;;11.68;4.13;;;18.50;99.90;;;;;;5038559;28;20037;-62
2023/07/31 05:11:18;;;;;;;14.13;4.55;;;18.50;99.90;;;;;;5038446;28;20071;-63
2023/07/31 05:13:44;;;;;;;9.55;4.38;;;18.50;99.90;;;;;;5037369;28;20485;-62
2023/07/31 05:16:09;;;;;;;11.25;4.13;;;18.60;99.90;;;;;;5039812;28;20033;-62
2023/07/31 05:18:35;;;;;;;9.13;2.97;;;18.60;99.90;;;;;;5035769;28;20429;-62
2023/07/31 05:21:00;;;;;;;7.75;3.65;;;18.60;99.90;;;;;;5034200;28;20079;-62
2023/07/31 05:23:26;;;;;;;9.38;3.65;;;18.60;99.90;;;;;;5030577;28;20029;-63
2023/07/31 05:25:51;;;;;;;10.77;4.32;;;18.60;99.90;;;;;;5037087;28;20083;-63
2023/07/31 05:28:17;;;;;;;8.95;4.20;;;18.70;99.90;;;;;;5032753;28;20041;-62
2023/07/31 05:30:43;;;;;;;15.10;4.10;;;18.70;99.90;;;;;;5035160;28;20386;-62
2023/07/31 05:33:08;;;;;;;9.93;4.10;;;18.70;99.90;;;;;;5031803;28;20021;-63
2023/07/31 05:35:34;;;;;;;17.75;4.75;;;18.70;99.90;;;;;;5034704;28;20071;-62
2023/07/31 05:37:59;;;;;;;13.85;4.45;;;18.70;99.90;;;;;;5032612;28;20075;-63
2023/07/31 05:40:25;;;;;;;8.52;4.50;;;18.60;99.90;;;;;;5038844;28;20092;-63
2023/07/31 05:42:50;;;;;;;17.65;5.00;;;18.70;99.90;;;;;;5034767;28;20056;-62
2023/07/31 05:45:16;;;;;;;14.77;5.00;;;18.60;99.90;;;;;;5027007;28;20040;-62
2023/07/31 05:47:41;;;;;;;13.57;4.68;;;18.60;99.90;;;;;;5033279;28;20056;-61
2023/07/31 05:50:07;;;;;;;17.42;5.50;;;18.60;99.90;;;;;;5022388;28;20580;-62
2023/07/31 05:52:33;;;;;;;17.02;4.47;;;18.60;99.90;;;;;;5035060;28;20129;-63
2023/07/31 05:54:59;;;;;;;11.10;3.53;;;18.70;99.90;;;;;;5028305;28;20112;-56
2023/07/31 05:57:24;;;;;;;8.57;3.55;;;18.70;99.90;;;;;;5029957;28;20076;-59
2023/07/31 05:59:50;;;;;;;11.90;4.90;;;18.60;99.90;;;;;;5035649;28;20013;-57
2023/07/31 06:02:15;;;;;;;7.03;3.90;;;18.60;99.90;;;;;;5034003;28;20045;-56
2023/07/31 06:04:41;;;;;;;15.48;4.88;;;18.60;99.90;;;;;;5035906;28;20104;-58
2023/07/31 06:07:07;;;;;;;8.90;4.30;;;18.50;99.90;;;;;;5033025;28;20033;-56
2023/07/31 06:09:32;;;;;;;14.68;5.20;;;18.50;99.90;;;;;;5034366;28;20038;-58
2023/07/31 06:11:58;;;;;;;13.05;4.38;;;18.40;99.90;;;;;;5034204;28;20028;-63
2023/07/31 06:14:24;;;;;;;8.90;3.83;;;18.30;99.90;;;;;;5028306;28;20199;-64
2023/07/31 06:16:49;;;;;;;9.65;4.82;;;18.30;99.90;;;;;;5035859;28;20021;-62
2023/07/31 06:19:15;;;;;;;13.00;4.45;;;18.20;99.90;;;;;;5033216;28;20034;-63
2023/07/31 06:21:42;;;;;;;11.95;4.07;;;18.10;99.90;;;;;;5029327;28;20036;-63
2023/07/31 06:24:08;;;;;;;11.45;4.60;;;18.00;99.90;;;;;;5029144;28;20040;-63
2023/07/31 06:26:33;;;;;;;9.13;4.03;;;18.00;99.90;;;;;;5031863;28;20037;-63
2023/07/31 06:28:59;;;;;;;9.38;4.32;;;18.10;99.90;;;;;;5040887;28;20025;-62
2023/07/31 06:31:24;;;;;;;15.77;5.22;;;18.10;99.90;;;;;;5030521;28;20033;-63
2023/07/31 06:33:51;;;;;;;13.40;4.30;;;18.00;99.90;;;;;;5032849;28;20021;-62
2023/07/31 06:36:17;;;;;;;12.50;4.38;;;18.00;99.90;;;;;;5035929;28;20420;-63
2023/07/31 06:38:42;;;;;;;12.30;4.13;;;18.00;99.90;;;;;;5030895;28;20136;-63
2023/07/31 06:41:09;;;;;;;8.57;4.22;;;18.00;99.90;;;;;;5030902;28;20037;-63
2023/07/31 06:43:34;;;;;;;9.57;4.72;;;18.00;99.90;;;;;;5031053;28;20087;-63
2023/07/31 06:46:08;;;;;;;9.75;4.82;;;18.10;99.90;;;;;;5033324;28;20046;-63
2023/07/31 06:48:34;;;;;;;11.27;4.10;;;18.10;99.90;;;;;;5035803;28;20033;-63
2023/07/31 06:51:00;;;;;;;12.10;4.88;;;18.10;99.90;;;;;;5033723;28;21046;-63
2023/07/31 06:53:26;;;;;;;11.02;4.25;;;18.20;99.90;;;;;;5031941;28;20033;-63
2023/07/31 06:55:51;;;;;;;8.18;4.22;;;18.20;99.90;;;;;;5028473;28;20025;-63
2023/07/31 06:58:17;;;;;;;10.57;4.20;;;18.40;99.90;;;;;;5027358;28;20043;-63
2023/07/31 07:00:43;;;;;;;12.95;4.57;;;18.40;99.90;;;;;;5037183;28;20029;-63
2023/07/31 07:03:08;;;;;;;9.35;4.22;;;18.50;99.90;;;;;;5034321;28;20051;-63
2023/07/31 07:05:34;;;;;;;10.52;4.18;;;18.60;99.90;;;;;;5036103;28;20029;-63
2023/07/31 07:08:00;;;;;;;8.82;4.47;;;18.60;99.90;;;;;;5031203;28;20060;-63
2023/07/31 07:10:25;;;;;;;12.13;4.55;;;18.60;99.90;;;;;;5040398;28;20034;-63
2023/07/31 07:12:51;;;;;;;14.25;5.28;;;18.70;99.90;;;;;;5032526;28;20163;-63
2023/07/31 07:15:17;;;;;;;8.77;4.35;;;18.60;99.90;;;;;;5037162;28;20025;-63
2023/07/31 07:17:42;;;;;;;10.23;4.43;;;18.70;99.90;;;;;;5032592;28;20056;-63
2023/07/31 07:20:08;;;;;;;9.48;4.20;;;18.70;99.90;;;;;;5040250;28;20114;-62
2023/07/31 07:22:33;;;;;;;7.78;3.75;;;18.70;99.90;;;;;;5037548;28;20033;-62
2023/07/31 07:24:59;;;;;;;16.35;5.03;;;18.70;99.90;;;;;;5034825;28;20120;-62
2023/07/31 07:27:25;;;;;;;12.73;4.35;;;18.70;99.90;;;;;;5031091;28;20114;-62
2023/07/31 07:29:54;;;;;;;12.13;4.28;;;18.70;99.90;;;;;;5035015;28;20024;-63
2023/07/31 07:32:20;;;;;;;8.73;4.40;;;18.80;99.90;;;;;;5034689;28;20026;-63
2023/07/31 07:34:47;;;;;;;8.43;4.25;;;18.60;99.90;;;;;;5035900;28;20033;-61
2023/07/31 07:37:13;;;;;;;8.68;3.65;;;18.60;99.90;;;;;;5034337;28;20044;-63
2023/07/31 07:39:38;;;;;;;10.30;4.78;;;18.70;99.90;;;;;;5038791;28;20437;-63
2023/07/31 07:42:04;;;;;;;11.05;4.63;;;18.60;99.90;;;;;;5033414;28;20481;-63
2023/07/31 07:44:30;;;;;;;11.02;4.43;;;18.50;99.90;;;;;;5040193;28;20500;-63
2023/07/31 07:46:55;;;;;;;11.70;5.00;;;18.50;99.90;;;;;;5033926;28;20029;-62
2023/07/31 07:49:22;;;;;;;13.48;5.60;;;18.40;99.90;;;;;;5038549;28;20443;-63
2023/07/31 07:51:48;;;;;;;10.90;4.00;;;18.50;99.90;;;;;;5037602;28;20037;-61
2023/07/31 07:54:14;;;;;;;12.57;4.28;;;18.40;99.90;;;;;;5034675;28;20029;-62
2023/07/31 07:56:39;;;;;;;15.57;5.30;;;18.40;99.90;;;;;;5037443;28;20032;-62
2023/07/31 07:59:05;;;;;;;9.52;4.68;;;18.30;99.90;;;;;;5033054;28;20108;-62
2023/07/31 08:01:30;;;;;;;9.57;4.35;;;18.20;99.90;;;;;;5037859;28;20025;-62
2023/07/31 08:03:56;;;;;;;14.02;4.28;;;18.20;99.90;;;;;;5034755;28;20013;-61
2023/07/31 08:06:22;;;;;;;14.75;5.05;;;18.10;99.90;;;;;;5032376;28;20040;-62
2023/07/31 08:08:48;;;;;;;8.55;3.80;;;18.20;99.90;;;;;;5032918;28;20044;-63
2023/07/31 08:11:13;;;;;;;10.30;4.20;;;18.10;99.90;;;;;;5034045;28;20484;-63
2023/07/31 08:13:39;;;;;;;8.40;3.70;;;18.10;99.90;;;;;;5033318;28;20095;-62
2023/07/31 08:16:04;;;;;;;12.40;3.70;;;18.00;99.90;;;;;;5033425;28;20017;-63
2023/07/31 08:18:32;;;;;;;8.15;3.42;;;18.00;99.90;;;;;;5033037;28;20021;-62
2023/07/31 08:20:57;;;;;;;10.80;3.53;;;18.10;99.90;;;;;;5035545;28;20036;-62
2023/07/31 08:23:23;;;;;;;9.38;4.05;;;18.10;99.90;;;;;;5035856;28;20022;-60
2023/07/31 08:25:50;;;;;;;10.98;4.13;;;17.90;99.90;;;;;;5035428;28;20378;-62
2023/07/31 08:28:16;;;;;;;9.27;4.18;;;17.90;99.90;;;;;;5033434;28;20030;-63
2023/07/31 08:30:42;;;;;;;12.10;4.55;;;17.90;99.90;;;;;;5034373;28;20409;-59
2023/07/31 08:33:07;;;;;;;6.47;3.55;;;18.00;99.90;;;;;;5035008;28;20036;-61
2023/07/31 08:35:33;;;;;;;16.13;4.85;;;18.00;99.90;;;;;;5035426;28;20034;-62
2023/07/31 08:37:59;;;;;;;7.50;4.15;;;18.10;99.90;;;;;;5030789;28;20026;-60
2023/07/31 08:40:25;;;;;;;8.15;3.55;;;18.10;99.90;;;;;;5031594;28;20049;-62
2023/07/31 08:42:56;;;;;;;9.15;3.72;;;18.10;99.90;;;;;;5031036;28;20028;-62
2023/07/31 08:45:22;;;;;;;9.70;3.35;;;18.10;99.90;;;;;;5037317;28;20084;-62
2023/07/31 08:47:49;;;;;;;8.15;3.83;;;18.10;99.90;;;;;;5032724;28;20037;-61
2023/07/31 08:50:18;;;;;;;11.68;3.65;;;18.10;99.90;;;;;;5030826;28;20044;-60
2023/07/31 08:52:43;;;;;;;9.88;3.90;;;18.10;99.90;;;;;;5033838;28;20025;-61
2023/07/31 08:55:09;;;;;;;5.75;3.53;;;18.20;99.90;;;;;;5030372;28;20052;-61
2023/07/31 08:57:37;;;;;;;12.20;3.85;;;18.20;99.90;;;;;;5032491;28;20078;-61
2023/07/31 09:00:05;;;;;;;10.90;3.58;;;18.10;99.90;;;;;;5038537;28;20576;-63
2023/07/31 09:03:02;;;;;;;16.02;4.05;;;18.10;99.90;;;;;;5031662;28;20033;-61
2023/07/31 09:05:30;;;;;;;9.38;3.88;;;18.20;99.90;;;;;;5027653;28;20041;-61
2023/07/31 09:07:57;;;;;;;12.23;4.13;;;18.20;99.90;;;;;;5032346;28;20032;-60
2023/07/31 09:10:22;;;;;;;11.07;6.45;;;18.30;99.90;;;;;;5032429;28;20087;-60
2023/07/31 09:12:50;;;;;;;12.45;4.97;;;18.30;99.90;;;;;;5031438;28;20038;-60
2023/07/31 09:15:16;;;;;;;11.80;4.35;;;18.40;99.90;;;;;;5035787;28;20025;-60
2023/07/31 09:17:42;;;;;;;8.18;3.67;;;18.40;99.90;;;;;;5032751;28;20033;-61
2023/07/31 09:20:16;;;;;;;10.55;4.03;;;18.40;99.90;;;;;;5031950;28;20040;-60
2023/07/31 09:22:43;;;;;;;8.73;3.85;;;18.40;99.90;;;;;;5029575;28;20075;-61
2023/07/31 09:25:18;;;;;;;6.70;3.15;;;18.10;99.90;;;;;;5032047;28;20025;-61
2023/07/31 09:28:01;;;;;;;11.65;4.22;;;18.10;99.90;;;;;;5030942;28;20383;-61
2023/07/31 09:30:27;;;;;;;10.18;3.47;;;18.10;99.90;;;;;;5032009;28;20020;-61
2023/07/31 09:33:06;;;;;;;5.28;3.17;;;18.10;99.90;;;;;;5032055;28;20037;-61
2023/07/31 09:35:33;;;;;;;8.23;3.67;;;18.20;99.90;;;;;;5026781;28;20056;-60
2023/07/31 09:38:19;;;;;;;6.63;2.85;;;18.20;99.90;;;;;;5036939;28;20025;-61
2023/07/31 09:40:47;;;;;;;15.05;3.72;;;18.30;99.90;;;;;;5036757;28;20412;-61
2023/07/31 09:43:22;;;;;;;10.82;3.05;;;18.20;99.90;;;;;;5031795;28;20028;-61
2023/07/31 09:45:53;;;;;;;9.05;3.17;;;18.30;99.90;;;;;;5034437;28;20021;-61
2023/07/31 09:48:19;;;;;;;6.13;3.00;;;18.30;99.90;;;;;;5029236;28;20446;-59
2023/07/31 09:50:46;;;;;;;7.78;3.20;;;18.30;99.90;;;;;;5035623;28;20550;-62
2023/07/31 09:53:12;;;;;;;8.07;2.75;;;18.40;99.90;;;;;;5032118;28;20500;-62
2023/07/31 09:55:38;;;;;;;11.45;3.55;;;18.50;99.90;;;;;;5035430;28;20048;-60
2023/07/31 09:58:06;;;;;;;8.95;3.05;;;18.60;99.90;;;;;;5031744;28;20025;-61
2023/07/31 10:00:32;;;;;;;6.35;2.53;;;18.60;99.90;;;;;;5036223;28;20021;-61
2023/07/31 10:03:04;;;;;;;6.53;2.67;;;18.80;99.90;;;;;;5030433;28;20619;-61
2023/07/31 10:05:42;;;;;;;9.93;2.35;;;18.80;99.90;;;;;;5034437;28;20030;-60
2023/07/31 10:08:09;;;;;;;7.22;2.83;;;18.90;99.90;;;;;;5032561;28;20021;-61
2023/07/31 10:10:37;;;;;;;6.88;2.42;;;19.10;99.90;;;;;;5027831;28;20496;-60
2023/07/31 10:13:04;;;;;;;10.63;5.95;;;19.20;99.90;;;;;;5032771;28;20179;-60
2023/07/31 10:15:31;;;;;;;9.55;5.05;;;19.30;99.90;;;;;;5038500;28;20037;-61
2023/07/31 10:17:59;;;;;;;8.02;3.25;;;19.40;99.90;;;;;;5032546;28;20167;-60
2023/07/31 10:20:26;;;;;;;5.65;3.22;;;19.40;99.90;;;;;;5036257;28;20485;-59
2023/07/31 10:22:53;;;;;;;7.38;3.00;;;19.40;99.90;;;;;;5031467;28;20044;-61
2023/07/31 10:25:19;;;;;;;5.95;2.90;;;19.40;99.90;;;;;;5028541;28;20033;-61
2023/07/31 10:27:47;;;;;;;8.18;3.13;;;19.40;99.90;;;;;;5031727;28;20032;-61
2023/07/31 10:30:16;;;;;;;10.90;3.10;;;19.40;99.90;;;;;;5037247;28;20099;-59
2023/07/31 10:32:43;;;;;;;5.25;2.75;;;19.50;99.90;;;;;;5028306;28;20076;-61
2023/07/31 10:35:10;;;;;;;4.85;2.88;;;19.50;99.90;;;;;;5029631;28;20044;-61
2023/07/31 10:37:39;;;;;;;8.45;2.50;;;19.60;99.90;;;;;;5032551;28;20052;-61
2023/07/31 10:40:22;;;;;;;8.40;2.50;;;19.70;99.90;;;;;;5036583;28;20025;-59
2023/07/31 10:42:57;;;;;;;7.05;2.47;;;19.70;99.90;;;;;;5031891;28;20027;-61
2023/07/31 10:45:38;;;;;;;7.32;3.45;;;19.80;99.90;;;;;;5024400;28;20028;-61
2023/07/31 10:48:14;;;;;;;9.52;2.65;;;19.80;99.90;;;;;;5030634;28;20083;-60
2023/07/31 10:50:56;;;;;;;3.35;1.90;;;19.90;99.90;;;;;;5031776;28;20088;-62
2023/07/31 10:53:22;;;;;;;8.98;2.75;;;19.90;99.90;;;;;;5032281;28;20036;-62
2023/07/31 10:55:51;;;;;;;4.40;2.00;;;19.90;99.90;;;;;;5032572;28;20022;-61
2023/07/31 10:58:19;;;;;;;7.65;2.40;;;19.90;99.90;;;;;;5029489;28;20101;-62
2023/07/31 11:00:45;;;;;;;4.43;1.80;;;20.00;99.90;;;;;;5027227;28;20076;-59
2023/07/31 11:03:17;;;;;;;2.20;1.40;;;20.00;99.90;;;;;;5030715;28;20025;-60
2023/07/31 11:05:55;;;;;;;2.33;1.42;;;20.00;99.90;;;;;;5027289;28;20033;-59
2023/07/31 11:08:24;;;;;;;4.70;1.77;;;20.00;99.90;;;;;;5036048;28;20029;-62
2023/07/31 11:11:17;;;;;;;3.65;1.20;;;20.10;99.90;;;;;;5034192;28;20044;-60
2023/07/31 11:13:49;;;;;;;2.67;1.63;;;20.00;99.90;;;;;;5028789;28;20041;-62
2023/07/31 11:16:16;;;;;;;2.83;1.20;;;19.90;99.90;;;;;;5028636;28;20116;-62
2023/07/31 11:18:43;;;;;;;2.78;1.30;;;19.90;99.90;;;;;;5031377;28;20139;-61
2023/07/31 11:21:14;;;;;;;2.28;1.17;;;19.90;99.90;;;;;;5031874;28;20041;-60
2023/07/31 11:23:40;;;;;;;1.70;1.20;;;19.90;99.90;;;;;;5029160;28;20029;-60
2023/07/31 11:26:07;;;;;;;2.97;1.13;;;19.80;99.90;;;;;;5034125;28;20059;-61
2023/07/31 11:28:34;;;;;;;3.47;1.05;;;19.80;99.90;;;;;;5031114;28;20716;-60
2023/07/31 11:31:01;;;;;;;2.45;1.00;;;20.00;99.90;;;;;;5029008;28;20033;-61
2023/07/31 11:33:26;;;;;;;8.32;3.17;;;20.20;99.90;;;;;;5028975;28;20072;-62
2023/07/31 11:35:52;;;;;;;11.65;6.30;;;20.30;99.90;;;;;;5028391;28;20025;-60
2023/07/31 11:38:26;;;;;;;3.15;1.25;;;20.50;99.90;;;;;;5029178;28;20029;-62
2023/07/31 11:40:54;;;;;;;4.82;1.35;;;20.60;99.90;;;;;;5029796;28;20022;-62
2023/07/31 11:43:20;;;;;;;1.85;0.80;;;20.70;99.90;;;;;;5028811;28;20516;-61
2023/07/31 11:45:50;;;;;;;2.20;1.17;;;20.80;99.90;;;;;;5028127;28;20033;-58
2023/07/31 11:48:23;;;;;;;1.88;0.88;;;21.10;99.90;;;;;;5029464;28;20070;-59
2023/07/31 11:50:50;;;;;;;2.10;0.75;;;21.10;99.90;;;;;;5031556;28;20037;-58
2023/07/31 11:53:18;;;;;;;3.55;0.70;;;21.30;99.90;;;;;;5032013;28;20075;-57
2023/07/31 11:55:45;;;;;;;2.30;1.05;;;21.40;99.90;;;;;;5038985;28;20488;-58
2023/07/31 11:58:11;;;;;;;3.10;0.85;;;21.40;99.90;;;;;;5033941;28;20499;-58
2023/07/31 12:00:36;;;;;;;0.70;0.70;;;21.20;99.90;;;;;;5036618;28;20029;-57
2023/07/31 12:03:02;;;;;;;2.50;1.38;;;21.00;99.90;;;;;;5041516;28;20045;-56
2023/07/31 12:05:28;;;;;;;1.23;0.90;;;21.00;99.90;;;;;;5037045;28;20064;-58
2023/07/31 12:07:55;;;;;;;4.05;1.13;;;20.90;99.90;;;;;;5040367;28;20029;-57
2023/07/31 12:10:32;;;;;;;1.38;0.70;;;20.80;99.90;;;;;;5039526;28;20025;-56
2023/07/31 12:13:04;;;;;;;4.72;0.95;;;20.80;99.90;;;;;;5033680;28;20471;-58
2023/07/31 12:15:42;;;;;;;8.88;3.63;;;20.70;99.90;;;;;;5042783;28;20033;-57
2023/07/31 12:18:18;;;;;;;1.30;1.15;;;20.70;99.90;;;;;;5044034;28;20025;-57
2023/07/31 12:20:49;;;;;;;2.03;1.08;;;20.70;99.90;;;;;;5037373;28;20048;-54
2023/07/31 12:23:30;;;;;;;1.35;0.80;;;20.70;99.90;;;;;;5037673;28;20064;-56
2023/07/31 12:26:07;;;;;;;2.55;1.08;;;20.60;99.90;;;;;;5040771;28;20527;-57
2023/07/31 12:28:38;;;;;;;1.85;0.95;;;20.70;99.90;;;;;;5026776;28;20033;-55
2023/07/31 12:31:04;;;;;;;1.40;0.95;;;20.60;99.90;;;;;;5033557;28;20040;-57
2023/07/31 12:33:35;;;;;;;3.03;1.20;;;20.70;99.90;;;;;;5038503;28;20025;-55
2023/07/31 12:36:03;;;;;;;2.30;1.08;;;20.70;99.90;;;;;;5035071;28;20037;-57
2023/07/31 12:38:29;;;;;;;1.77;1.40;;;20.80;99.90;;;;;;5036899;28;20043;-57
2023/07/31 12:40:54;;;;;;;1.58;1.13;;;20.80;99.90;;;;;;5040676;28;20025;-55
2023/07/31 12:43:20;;;;;;;2.33;1.52;;;20.90;99.90;;;;;;5037740;28;20044;-57